Portada
METAR-TAF:

METAR-TAF

Aeroports :

Aeroport Internacional Maiquetía Simón Bolívar

Caracas, Veneçuela

latitud: 10-36N, longitud: 066-59W, altitud: 43 m

Observació

L'informe es va fer fa 39 minuts, a les 05:00 UTC
Vent calma
Temperatura 23°C
Humitat 94%
Pressió 1010 hPa
Visibilitat 10 km o més
Cel cobert a una alçada de 1300 ft

METAR: SVMI 280500Z 00000KT 9999 OVC013 23/22 Q1010

Hora: 01:39 (05:39 UTC)

Pronòstic

L'informe es va fer fa 7 hores i 39 minuts, a les 22:00 UTC
Pronòstic vàlid del 28 a les 00 UTC al 29 a les 00 UTC
Vent 5 kt del Est
Visibilitat 10 km o més
Cel ennuvolat a una alçada de 1300 ft
Probabilitat 30% :
Temporalment
l' 28 a les 00 UTC al 28 a les 04 UTC
Vent 3 kt del Est
Visibilitat: 8000 m
Cel ennuvolat a una alçada de 1300 ft
plugim

TAF: SVMI 272200Z 2800/2900 09005KT 9999 BKN013 TX32/2818Z TN25/2807Z PROB30 TEMPO 2800/2804 09003KT 8000 DZ BKN013

Observacions i pronòstics meteorològics de més de 4000 aeroports (METAR i TAF).

Les estacions disponibles són els punts grocs i vermells al mapa.

Posi el ratolí al punt desitjat per veure el nom de l'estació.

Feu clic per veure les observacions i els pronòstics meteorològics.

Per canviar el mapa: feu clic els botons verds amb una creu de color negre per apropar; al botó verd amb un guió per allunyar la imatge; o en les fletxes verdes per a mapes adjacents.


METAR-TAF: